sensor_id;sensor_type;location;lat;lon;timestamp;P1;durP1;ratioP1;P2;durP2;ratioP2
19675;SDS011;39539;52.202;9.876;2023-12-14T00:05:09;8.25;;;6.80;;
19675;SDS011;39539;52.202;9.876;2023-12-14T00:07:34;9.20;;;7.13;;
19675;SDS011;39539;52.202;9.876;2023-12-14T00:10:01;9.65;;;7.45;;
19675;SDS011;39539;52.202;9.876;2023-12-14T00:12:29;8.63;;;6.53;;
19675;SDS011;39539;52.202;9.876;2023-12-14T00:14:57;8.85;;;7.50;;
19675;SDS011;39539;52.202;9.876;2023-12-14T00:17:26;7.43;;;6.65;;
19675;SDS011;39539;52.202;9.876;2023-12-14T00:19:56;8.65;;;7.07;;
19675;SDS011;39539;52.202;9.876;2023-12-14T00:22:22;8.88;;;6.63;;
19675;SDS011;39539;52.202;9.876;2023-12-14T00:24:48;9.30;;;7.45;;
19675;SDS011;39539;52.202;9.876;2023-12-14T00:27:26;10.95;;;8.18;;
19675;SDS011;39539;52.202;9.876;2023-12-14T00:30:01;8.27;;;7.32;;
19675;SDS011;39539;52.202;9.876;2023-12-14T00:37:59;7.90;;;6.93;;
19675;SDS011;39539;52.202;9.876;2023-12-14T00:40:27;6.97;;;6.28;;
19675;SDS011;39539;52.202;9.876;2023-12-14T00:42:54;7.70;;;6.63;;
19675;SDS011;39539;52.202;9.876;2023-12-14T00:45:20;6.88;;;5.65;;
19675;SDS011;39539;52.202;9.876;2023-12-14T00:47:49;6.22;;;5.63;;
19675;SDS011;39539;52.202;9.876;2023-12-14T00:50:15;6.05;;;5.18;;
19675;SDS011;39539;52.202;9.876;2023-12-14T00:52:56;7.35;;;5.88;;
19675;SDS011;39539;52.202;9.876;2023-12-14T00:55:21;5.93;;;5.07;;
19675;SDS011;39539;52.202;9.876;2023-12-14T00:57:46;7.30;;;5.75;;
19675;SDS011;39539;52.202;9.876;2023-12-14T01:00:13;6.35;;;5.70;;
19675;SDS011;39539;52.202;9.876;2023-12-14T01:02:39;6.40;;;5.80;;
19675;SDS011;39539;52.202;9.876;2023-12-14T01:05:06;6.30;;;5.70;;
19675;SDS011;39539;52.202;9.876;2023-12-14T01:07:32;7.78;;;6.85;;
19675;SDS011;39539;52.202;9.876;2023-12-14T01:09:59;8.02;;;7.22;;
19675;SDS011;39539;52.202;9.876;2023-12-14T01:12:37;7.53;;;6.05;;
19675;SDS011;39539;52.202;9.876;2023-12-14T01:15:02;8.75;;;7.15;;
19675;SDS011;39539;52.202;9.876;2023-12-14T01:17:28;10.05;;;7.20;;
19675;SDS011;39539;52.202;9.876;2023-12-14T01:19:54;7.88;;;7.15;;
19675;SDS011;39539;52.202;9.876;2023-12-14T01:25:07;7.40;;;6.55;;
19675;SDS011;39539;52.202;9.876;2023-12-14T01:27:45;9.35;;;6.75;;
19675;SDS011;39539;52.202;9.876;2023-12-14T01:30:12;8.93;;;7.20;;
19675;SDS011;39539;52.202;9.876;2023-12-14T01:32:37;7.82;;;6.72;;
19675;SDS011;39539;52.202;9.876;2023-12-14T01:35:03;7.30;;;5.90;;
19675;SDS011;39539;52.202;9.876;2023-12-14T01:37:29;6.50;;;5.80;;
19675;SDS011;39539;52.202;9.876;2023-12-14T01:40:09;6.47;;;5.72;;
19675;SDS011;39539;52.202;9.876;2023-12-14T01:42:45;6.32;;;5.63;;
19675;SDS011;39539;52.202;9.876;2023-12-14T01:45:16;6.75;;;4.85;;
19675;SDS011;39539;52.202;9.876;2023-12-14T01:47:51;5.80;;;5.20;;
19675;SDS011;39539;52.202;9.876;2023-12-14T01:50:17;6.40;;;5.80;;
19675;SDS011;39539;52.202;9.876;2023-12-14T01:52:43;5.97;;;5.38;;
19675;SDS011;39539;52.202;9.876;2023-12-14T01:55:08;6.32;;;5.72;;
19675;SDS011;39539;52.202;9.876;2023-12-14T01:57:34;6.97;;;6.15;;
19675;SDS011;39539;52.202;9.876;2023-12-14T02:03:03;8.00;;;6.55;;
19675;SDS011;39539;52.202;9.876;2023-12-14T02:05:31;7.57;;;6.38;;
19675;SDS011;39539;52.202;9.876;2023-12-14T02:08:01;8.05;;;7.25;;
19675;SDS011;39539;52.202;9.876;2023-12-14T02:10:36;8.25;;;7.45;;
19675;SDS011;39539;52.202;9.876;2023-12-14T02:13:02;7.82;;;6.47;;
19675;SDS011;39539;52.202;9.876;2023-12-14T02:18:49;8.40;;;7.50;;
19675;SDS011;39539;52.202;9.876;2023-12-14T02:21:24;8.68;;;7.72;;
19675;SDS011;39539;52.202;9.876;2023-12-14T02:23:51;7.88;;;7.07;;
19675;SDS011;39539;52.202;9.876;2023-12-14T02:26:16;9.90;;;8.13;;
19675;SDS011;39539;52.202;9.876;2023-12-14T02:31:38;8.50;;;7.60;;
19675;SDS011;39539;52.202;9.876;2023-12-14T02:34:09;8.90;;;6.85;;
19675;SDS011;39539;52.202;9.876;2023-12-14T02:36:47;8.38;;;7.57;;
19675;SDS011;39539;52.202;9.876;2023-12-14T02:42:03;7.55;;;6.13;;
19675;SDS011;39539;52.202;9.876;2023-12-14T02:44:30;6.57;;;5.95;;
19675;SDS011;39539;52.202;9.876;2023-12-14T02:47:05;8.30;;;7.50;;
19675;SDS011;39539;52.202;9.876;2023-12-14T02:52:19;6.68;;;6.03;;
19675;SDS011;39539;52.202;9.876;2023-12-14T02:54:46;6.90;;;6.20;;
19675;SDS011;39539;52.202;9.876;2023-12-14T02:57:12;7.10;;;6.40;;
19675;SDS011;39539;52.202;9.876;2023-12-14T02:59:56;6.10;;;5.50;;
19675;SDS011;39539;52.202;9.876;2023-12-14T03:02:21;6.35;;;5.75;;
19675;SDS011;39539;52.202;9.876;2023-12-14T03:05:02;6.05;;;5.35;;
19675;SDS011;39539;52.202;9.876;2023-12-14T03:07:33;6.68;;;5.97;;
19675;SDS011;39539;52.202;9.876;2023-12-14T03:10:02;6.90;;;6.22;;
19675;SDS011;39539;52.202;9.876;2023-12-14T03:12:29;7.50;;;6.70;;
19675;SDS011;39539;52.202;9.876;2023-12-14T03:15:07;9.38;;;6.22;;
19675;SDS011;39539;52.202;9.876;2023-12-14T03:17:33;6.65;;;5.95;;
19675;SDS011;39539;52.202;9.876;2023-12-14T03:19:58;6.63;;;5.93;;
19675;SDS011;39539;52.202;9.876;2023-12-14T03:22:23;7.28;;;6.57;;
19675;SDS011;39539;52.202;9.876;2023-12-14T03:24:49;8.10;;;6.45;;
19675;SDS011;39539;52.202;9.876;2023-12-14T03:27:17;6.70;;;6.03;;
19675;SDS011;39539;52.202;9.876;2023-12-14T03:29:43;7.28;;;6.47;;
19675;SDS011;39539;52.202;9.876;2023-12-14T03:32:09;7.35;;;6.65;;
19675;SDS011;39539;52.202;9.876;2023-12-14T03:34:36;7.57;;;6.45;;
19675;SDS011;39539;52.202;9.876;2023-12-14T03:37:02;7.88;;;6.85;;
19675;SDS011;39539;52.202;9.876;2023-12-14T03:39:32;8.02;;;7.22;;
19675;SDS011;39539;52.202;9.876;2023-12-14T03:42:04;8.60;;;7.72;;
19675;SDS011;39539;52.202;9.876;2023-12-14T03:44:31;9.00;;;7.03;;
19675;SDS011;39539;52.202;9.876;2023-12-14T03:46:58;9.43;;;7.78;;
19675;SDS011;39539;52.202;9.876;2023-12-14T03:49:25;9.70;;;7.78;;
19675;SDS011;39539;52.202;9.876;2023-12-14T03:51:50;9.25;;;8.18;;
19675;SDS011;39539;52.202;9.876;2023-12-14T03:57:12;11.93;;;9.10;;
19675;SDS011;39539;52.202;9.876;2023-12-14T03:59:42;8.27;;;7.15;;
19675;SDS011;39539;52.202;9.876;2023-12-14T04:02:07;9.85;;;7.57;;
19675;SDS011;39539;52.202;9.876;2023-12-14T04:04:51;9.23;;;7.47;;
19675;SDS011;39539;52.202;9.876;2023-12-14T04:07:17;9.85;;;8.85;;
19675;SDS011;39539;52.202;9.876;2023-12-14T04:09:46;9.65;;;8.60;;
19675;SDS011;39539;52.202;9.876;2023-12-14T04:12:13;9.55;;;8.52;;
19675;SDS011;39539;52.202;9.876;2023-12-14T04:14:39;10.88;;;8.88;;
19675;SDS011;39539;52.202;9.876;2023-12-14T04:17:05;10.13;;;8.38;;
19675;SDS011;39539;52.202;9.876;2023-12-14T04:19:30;10.07;;;9.00;;
19675;SDS011;39539;52.202;9.876;2023-12-14T04:21:59;10.02;;;8.70;;
19675;SDS011;39539;52.202;9.876;2023-12-14T04:24:24;12.52;;;9.57;;
19675;SDS011;39539;52.202;9.876;2023-12-14T04:26:50;12.50;;;9.88;;
19675;SDS011;39539;52.202;9.876;2023-12-14T04:29:17;11.32;;;9.18;;
19675;SDS011;39539;52.202;9.876;2023-12-14T04:31:51;11.52;;;10.10;;
19675;SDS011;39539;52.202;9.876;2023-12-14T04:34:18;13.60;;;9.30;;
19675;SDS011;39539;52.202;9.876;2023-12-14T04:36:49;12.50;;;9.35;;
19675;SDS011;39539;52.202;9.876;2023-12-14T04:39:18;12.07;;;10.43;;
19675;SDS011;39539;52.202;9.876;2023-12-14T04:41:53;10.70;;;9.52;;
19675;SDS011;39539;52.202;9.876;2023-12-14T04:44:20;12.38;;;10.27;;
19675;SDS011;39539;52.202;9.876;2023-12-14T04:46:52;12.85;;;10.75;;
19675;SDS011;39539;52.202;9.876;2023-12-14T04:49:36;14.23;;;11.30;;
19675;SDS011;39539;52.202;9.876;2023-12-14T04:52:02;14.63;;;10.93;;
19675;SDS011;39539;52.202;9.876;2023-12-14T04:57:12;13.98;;;10.43;;
19675;SDS011;39539;52.202;9.876;2023-12-14T05:02:47;16.35;;;10.40;;
19675;SDS011;39539;52.202;9.876;2023-12-14T05:05:16;12.23;;;9.75;;
19675;SDS011;39539;52.202;9.876;2023-12-14T05:07:44;13.40;;;10.38;;
19675;SDS011;39539;52.202;9.876;2023-12-14T05:10:19;14.25;;;11.43;;
19675;SDS011;39539;52.202;9.876;2023-12-14T05:12:45;13.40;;;11.00;;
19675;SDS011;39539;52.202;9.876;2023-12-14T05:15:10;13.52;;;10.95;;
19675;SDS011;39539;52.202;9.876;2023-12-14T05:17:37;13.10;;;9.35;;
19675;SDS011;39539;52.202;9.876;2023-12-14T05:20:15;13.98;;;11.07;;
19675;SDS011;39539;52.202;9.876;2023-12-14T05:22:43;13.65;;;10.65;;
19675;SDS011;39539;52.202;9.876;2023-12-14T05:25:12;18.30;;;10.98;;
19675;SDS011;39539;52.202;9.876;2023-12-14T05:27:40;14.25;;;10.07;;
19675;SDS011;39539;52.202;9.876;2023-12-14T05:30:09;12.85;;;10.05;;
19675;SDS011;39539;52.202;9.876;2023-12-14T05:32:36;12.93;;;10.40;;
19675;SDS011;39539;52.202;9.876;2023-12-14T05:35:01;11.50;;;9.45;;
19675;SDS011;39539;52.202;9.876;2023-12-14T05:37:26;10.60;;;9.48;;
19675;SDS011;39539;52.202;9.876;2023-12-14T05:39:53;11.57;;;9.70;;
19675;SDS011;39539;52.202;9.876;2023-12-14T05:42:20;12.60;;;9.05;;
19675;SDS011;39539;52.202;9.876;2023-12-14T05:44:55;11.50;;;10.23;;
19675;SDS011;39539;52.202;9.876;2023-12-14T05:50:14;12.95;;;9.95;;
19675;SDS011;39539;52.202;9.876;2023-12-14T05:52:58;11.40;;;8.52;;
19675;SDS011;39539;52.202;9.876;2023-12-14T05:55:39;10.38;;;9.05;;
19675;SDS011;39539;52.202;9.876;2023-12-14T05:58:24;10.05;;;8.23;;
19675;SDS011;39539;52.202;9.876;2023-12-14T06:00:52;9.35;;;8.23;;
19675;SDS011;39539;52.202;9.876;2023-12-14T06:03:21;9.52;;;7.97;;
19675;SDS011;39539;52.202;9.876;2023-12-14T06:05:52;9.13;;;8.23;;
19675;SDS011;39539;52.202;9.876;2023-12-14T06:08:32;11.35;;;8.40;;
19675;SDS011;39539;52.202;9.876;2023-12-14T06:10:59;11.35;;;8.52;;
19675;SDS011;39539;52.202;9.876;2023-12-14T06:13:25;9.70;;;8.05;;
19675;SDS011;39539;52.202;9.876;2023-12-14T06:15:50;10.43;;;8.23;;
19675;SDS011;39539;52.202;9.876;2023-12-14T06:18:16;8.63;;;7.15;;
19675;SDS011;39539;52.202;9.876;2023-12-14T06:20:42;8.18;;;7.35;;
19675;SDS011;39539;52.202;9.876;2023-12-14T06:23:07;8.25;;;7.45;;
19675;SDS011;39539;52.202;9.876;2023-12-14T06:25:34;8.07;;;7.00;;
19675;SDS011;39539;52.202;9.876;2023-12-14T06:27:59;11.35;;;8.40;;
19675;SDS011;39539;52.202;9.876;2023-12-14T06:30:25;9.35;;;7.60;;
19675;SDS011;39539;52.202;9.876;2023-12-14T06:32:50;8.38;;;7.57;;
19675;SDS011;39539;52.202;9.876;2023-12-14T06:35:16;9.02;;;7.65;;
19675;SDS011;39539;52.202;9.876;2023-12-14T06:37:41;8.70;;;7.60;;
19675;SDS011;39539;52.202;9.876;2023-12-14T06:40:08;9.20;;;8.20;;
19675;SDS011;39539;52.202;9.876;2023-12-14T06:42:34;8.60;;;7.70;;
19675;SDS011;39539;52.202;9.876;2023-12-14T06:45:01;10.10;;;8.68;;
19675;SDS011;39539;52.202;9.876;2023-12-14T06:47:28;8.57;;;7.78;;
19675;SDS011;39539;52.202;9.876;2023-12-14T06:49:53;13.32;;;9.50;;
19675;SDS011;39539;52.202;9.876;2023-12-14T06:52:18;10.68;;;8.23;;
19675;SDS011;39539;52.202;9.876;2023-12-14T06:54:44;12.13;;;8.45;;
19675;SDS011;39539;52.202;9.876;2023-12-14T06:57:11;10.05;;;8.98;;
19675;SDS011;39539;52.202;9.876;2023-12-14T06:59:37;10.55;;;9.48;;
19675;SDS011;39539;52.202;9.876;2023-12-14T07:02:04;11.82;;;9.38;;
19675;SDS011;39539;52.202;9.876;2023-12-14T07:04:29;13.48;;;10.32;;
19675;SDS011;39539;52.202;9.876;2023-12-14T07:06:54;13.68;;;10.88;;
19675;SDS011;39539;52.202;9.876;2023-12-14T07:09:21;14.52;;;10.18;;
19675;SDS011;39539;52.202;9.876;2023-12-14T07:11:47;10.23;;;8.88;;
19675;SDS011;39539;52.202;9.876;2023-12-14T07:14:13;13.10;;;10.98;;
19675;SDS011;39539;52.202;9.876;2023-12-14T07:16:40;10.90;;;9.50;;
19675;SDS011;39539;52.202;9.876;2023-12-14T07:19:06;9.15;;;8.25;;
19675;SDS011;39539;52.202;9.876;2023-12-14T07:21:31;10.02;;;8.93;;
19675;SDS011;39539;52.202;9.876;2023-12-14T07:23:57;10.98;;;8.38;;
19675;SDS011;39539;52.202;9.876;2023-12-14T07:26:22;9.43;;;8.48;;
19675;SDS011;39539;52.202;9.876;2023-12-14T07:28:48;8.82;;;7.97;;
19675;SDS011;39539;52.202;9.876;2023-12-14T07:31:13;8.98;;;7.75;;
19675;SDS011;39539;52.202;9.876;2023-12-14T07:33:54;8.95;;;7.05;;
19675;SDS011;39539;52.202;9.876;2023-12-14T07:36:33;8.52;;;7.57;;
19675;SDS011;39539;52.202;9.876;2023-12-14T07:38:58;9.10;;;8.05;;
19675;SDS011;39539;52.202;9.876;2023-12-14T07:41:26;10.88;;;8.52;;
19675;SDS011;39539;52.202;9.876;2023-12-14T07:43:56;8.20;;;7.40;;
19675;SDS011;39539;52.202;9.876;2023-12-14T07:46:22;10.82;;;7.82;;
19675;SDS011;39539;52.202;9.876;2023-12-14T07:48:52;10.30;;;8.40;;
19675;SDS011;39539;52.202;9.876;2023-12-14T07:51:18;8.93;;;7.68;;
19675;SDS011;39539;52.202;9.876;2023-12-14T07:53:46;8.80;;;7.90;;
19675;SDS011;39539;52.202;9.876;2023-12-14T07:56:12;9.38;;;7.45;;
19675;SDS011;39539;52.202;9.876;2023-12-14T07:58:37;8.35;;;7.45;;
19675;SDS011;39539;52.202;9.876;2023-12-14T08:01:03;8.85;;;7.93;;
19675;SDS011;39539;52.202;9.876;2023-12-14T08:03:28;9.55;;;8.65;;
19675;SDS011;39539;52.202;9.876;2023-12-14T08:05:54;9.10;;;8.20;;
19675;SDS011;39539;52.202;9.876;2023-12-14T08:08:20;9.48;;;8.35;;
19675;SDS011;39539;52.202;9.876;2023-12-14T08:10:46;10.05;;;8.93;;
19675;SDS011;39539;52.202;9.876;2023-12-14T08:13:11;9.48;;;8.57;;
19675;SDS011;39539;52.202;9.876;2023-12-14T08:15:36;9.40;;;8.20;;
19675;SDS011;39539;52.202;9.876;2023-12-14T08:18:02;10.48;;;8.43;;
19675;SDS011;39539;52.202;9.876;2023-12-14T08:20:27;9.68;;;8.68;;
19675;SDS011;39539;52.202;9.876;2023-12-14T08:22:53;10.40;;;8.48;;
19675;SDS011;39539;52.202;9.876;2023-12-14T08:25:18;9.73;;;8.73;;
19675;SDS011;39539;52.202;9.876;2023-12-14T08:27:44;9.20;;;8.20;;
19675;SDS011;39539;52.202;9.876;2023-12-14T08:30:10;8.95;;;8.05;;
19675;SDS011;39539;52.202;9.876;2023-12-14T08:32:36;8.70;;;7.90;;
19675;SDS011;39539;52.202;9.876;2023-12-14T08:35:01;8.57;;;7.72;;
19675;SDS011;39539;52.202;9.876;2023-12-14T08:37:27;8.55;;;7.75;;
19675;SDS011;39539;52.202;9.876;2023-12-14T08:39:52;9.10;;;8.15;;
19675;SDS011;39539;52.202;9.876;2023-12-14T08:42:18;8.90;;;8.02;;
19675;SDS011;39539;52.202;9.876;2023-12-14T08:44:44;8.32;;;7.53;;
19675;SDS011;39539;52.202;9.876;2023-12-14T08:47:10;8.77;;;7.97;;
19675;SDS011;39539;52.202;9.876;2023-12-14T08:49:35;7.75;;;7.03;;
19675;SDS011;39539;52.202;9.876;2023-12-14T08:52:01;8.18;;;7.38;;
19675;SDS011;39539;52.202;9.876;2023-12-14T08:54:28;8.02;;;7.07;;
19675;SDS011;39539;52.202;9.876;2023-12-14T08:56:53;7.40;;;6.53;;
19675;SDS011;39539;52.202;9.876;2023-12-14T08:59:19;6.75;;;5.65;;
19675;SDS011;39539;52.202;9.876;2023-12-14T09:01:47;6.88;;;6.20;;
19675;SDS011;39539;52.202;9.876;2023-12-14T09:04:12;6.43;;;5.82;;
19675;SDS011;39539;52.202;9.876;2023-12-14T09:06:38;6.40;;;5.80;;
19675;SDS011;39539;52.202;9.876;2023-12-14T09:09:08;7.15;;;6.15;;
19675;SDS011;39539;52.202;9.876;2023-12-14T09:11:33;6.18;;;5.63;;
19675;SDS011;39539;52.202;9.876;2023-12-14T09:14:01;5.88;;;5.28;;
19675;SDS011;39539;52.202;9.876;2023-12-14T09:16:27;6.57;;;5.97;;
19675;SDS011;39539;52.202;9.876;2023-12-14T09:18:53;7.22;;;5.40;;
19675;SDS011;39539;52.202;9.876;2023-12-14T09:21:19;7.72;;;5.32;;
19675;SDS011;39539;52.202;9.876;2023-12-14T09:23:45;4.82;;;4.32;;
19675;SDS011;39539;52.202;9.876;2023-12-14T09:26:10;6.75;;;6.13;;
19675;SDS011;39539;52.202;9.876;2023-12-14T09:28:36;6.32;;;5.70;;
19675;SDS011;39539;52.202;9.876;2023-12-14T09:31:02;6.32;;;5.82;;
19675;SDS011;39539;52.202;9.876;2023-12-14T09:33:28;5.95;;;5.45;;
19675;SDS011;39539;52.202;9.876;2023-12-14T09:35:53;5.63;;;4.95;;
19675;SDS011;39539;52.202;9.876;2023-12-14T09:38:18;7.22;;;4.88;;
19675;SDS011;39539;52.202;9.876;2023-12-14T09:40:44;5.75;;;5.13;;
19675;SDS011;39539;52.202;9.876;2023-12-14T09:43:10;5.20;;;4.75;;
19675;SDS011;39539;52.202;9.876;2023-12-14T09:45:36;6.38;;;5.15;;
19675;SDS011;39539;52.202;9.876;2023-12-14T09:48:07;5.70;;;5.20;;
19675;SDS011;39539;52.202;9.876;2023-12-14T09:50:34;5.97;;;5.30;;
19675;SDS011;39539;52.202;9.876;2023-12-14T09:53:02;5.13;;;4.63;;
19675;SDS011;39539;52.202;9.876;2023-12-14T09:55:28;5.05;;;4.55;;
19675;SDS011;39539;52.202;9.876;2023-12-14T09:57:55;5.50;;;5.00;;
19675;SDS011;39539;52.202;9.876;2023-12-14T10:00:33;5.85;;;5.25;;
19675;SDS011;39539;52.202;9.876;2023-12-14T10:05:45;4.65;;;4.25;;
19675;SDS011;39539;52.202;9.876;2023-12-14T10:08:12;4.47;;;4.03;;
19675;SDS011;39539;52.202;9.876;2023-12-14T10:10:37;5.07;;;4.35;;
19675;SDS011;39539;52.202;9.876;2023-12-14T10:13:03;5.22;;;4.40;;
19675;SDS011;39539;52.202;9.876;2023-12-14T10:15:29;5.07;;;4.68;;
19675;SDS011;39539;52.202;9.876;2023-12-14T10:17:54;6.05;;;4.43;;
19675;SDS011;39539;52.202;9.876;2023-12-14T10:20:21;3.95;;;3.58;;
19675;SDS011;39539;52.202;9.876;2023-12-14T10:22:47;5.50;;;4.40;;
19675;SDS011;39539;52.202;9.876;2023-12-14T10:25:14;4.95;;;4.53;;
19675;SDS011;39539;52.202;9.876;2023-12-14T10:27:39;5.53;;;4.97;;
19675;SDS011;39539;52.202;9.876;2023-12-14T10:30:09;4.88;;;4.40;;
19675;SDS011;39539;52.202;9.876;2023-12-14T10:32:37;4.72;;;4.32;;
19675;SDS011;39539;52.202;9.876;2023-12-14T10:35:03;6.72;;;5.15;;
19675;SDS011;39539;52.202;9.876;2023-12-14T10:37:29;5.57;;;5.07;;
19675;SDS011;39539;52.202;9.876;2023-12-14T10:39:56;6.13;;;5.10;;
19675;SDS011;39539;52.202;9.876;2023-12-14T10:42:22;4.93;;;4.40;;
19675;SDS011;39539;52.202;9.876;2023-12-14T10:44:52;4.50;;;4.00;;
19675;SDS011;39539;52.202;9.876;2023-12-14T10:47:19;5.05;;;4.63;;
19675;SDS011;39539;52.202;9.876;2023-12-14T10:49:46;5.15;;;4.65;;
19675;SDS011;39539;52.202;9.876;2023-12-14T10:52:15;5.18;;;4.57;;
19675;SDS011;39539;52.202;9.876;2023-12-14T10:54:40;4.78;;;4.38;;
19675;SDS011;39539;52.202;9.876;2023-12-14T10:57:07;5.05;;;4.65;;
19675;SDS011;39539;52.202;9.876;2023-12-14T10:59:34;4.70;;;4.25;;
19675;SDS011;39539;52.202;9.876;2023-12-14T11:01:59;4.93;;;4.53;;
19675;SDS011;39539;52.202;9.876;2023-12-14T11:04:56;5.00;;;4.15;;
19675;SDS011;39539;52.202;9.876;2023-12-14T11:07:46;4.50;;;4.10;;
19675;SDS011;39539;52.202;9.876;2023-12-14T11:10:19;4.00;;;3.65;;
19675;SDS011;39539;52.202;9.876;2023-12-14T11:12:51;4.32;;;3.92;;
19675;SDS011;39539;52.202;9.876;2023-12-14T11:15:30;5.57;;;5.07;;
19675;SDS011;39539;52.202;9.876;2023-12-14T11:23:11;5.00;;;4.57;;
19675;SDS011;39539;52.202;9.876;2023-12-14T11:25:40;4.55;;;4.15;;
19675;SDS011;39539;52.202;9.876;2023-12-14T11:28:06;5.28;;;4.70;;
19675;SDS011;39539;52.202;9.876;2023-12-14T11:30:33;4.82;;;4.43;;
19675;SDS011;39539;52.202;9.876;2023-12-14T11:33:00;5.05;;;4.65;;
19675;SDS011;39539;52.202;9.876;2023-12-14T11:35:26;5.70;;;5.20;;
19675;SDS011;39539;52.202;9.876;2023-12-14T11:37:51;4.82;;;4.43;;
19675;SDS011;39539;52.202;9.876;2023-12-14T11:40:16;5.13;;;4.72;;
19675;SDS011;39539;52.202;9.876;2023-12-14T11:43:09;5.13;;;4.63;;
19675;SDS011;39539;52.202;9.876;2023-12-14T11:45:37;5.32;;;4.80;;
19675;SDS011;39539;52.202;9.876;2023-12-14T11:48:04;5.82;;;5.32;;
19675;SDS011;39539;52.202;9.876;2023-12-14T11:50:31;5.13;;;4.63;;
19675;SDS011;39539;52.202;9.876;2023-12-14T11:52:59;5.68;;;5.15;;
19675;SDS011;39539;52.202;9.876;2023-12-14T11:55:26;5.72;;;5.22;;
19675;SDS011;39539;52.202;9.876;2023-12-14T11:57:52;5.65;;;4.80;;
19675;SDS011;39539;52.202;9.876;2023-12-14T12:00:18;5.97;;;5.40;;
19675;SDS011;39539;52.202;9.876;2023-12-14T12:02:49;6.15;;;5.55;;
19675;SDS011;39539;52.202;9.876;2023-12-14T12:05:14;6.22;;;5.70;;
19675;SDS011;39539;52.202;9.876;2023-12-14T12:07:44;5.20;;;4.70;;
19675;SDS011;39539;52.202;9.876;2023-12-14T12:10:12;6.40;;;5.38;;
19675;SDS011;39539;52.202;9.876;2023-12-14T12:12:38;5.47;;;4.97;;
19675;SDS011;39539;52.202;9.876;2023-12-14T12:15:04;5.47;;;4.97;;
19675;SDS011;39539;52.202;9.876;2023-12-14T12:17:30;5.15;;;4.75;;
19675;SDS011;39539;52.202;9.876;2023-12-14T12:20:02;5.75;;;5.22;;
19675;SDS011;39539;52.202;9.876;2023-12-14T12:22:29;5.40;;;4.90;;
19675;SDS011;39539;52.202;9.876;2023-12-14T12:24:55;5.18;;;4.70;;
19675;SDS011;39539;52.202;9.876;2023-12-14T12:27:20;6.35;;;5.82;;
19675;SDS011;39539;52.202;9.876;2023-12-14T12:29:46;6.30;;;5.43;;
19675;SDS011;39539;52.202;9.876;2023-12-14T12:32:11;5.95;;;5.45;;
19675;SDS011;39539;52.202;9.876;2023-12-14T12:34:36;6.38;;;5.82;;
19675;SDS011;39539;52.202;9.876;2023-12-14T12:37:02;6.10;;;5.50;;
19675;SDS011;39539;52.202;9.876;2023-12-14T12:39:28;7.00;;;6.30;;
19675;SDS011;39539;52.202;9.876;2023-12-14T12:41:54;5.97;;;5.40;;
19675;SDS011;39539;52.202;9.876;2023-12-14T12:44:19;5.93;;;5.32;;
19675;SDS011;39539;52.202;9.876;2023-12-14T12:46:45;6.55;;;5.95;;
19675;SDS011;39539;52.202;9.876;2023-12-14T12:49:11;6.00;;;5.40;;
19675;SDS011;39539;52.202;9.876;2023-12-14T12:51:37;7.32;;;5.97;;
19675;SDS011;39539;52.202;9.876;2023-12-14T12:54:02;7.63;;;6.18;;
19675;SDS011;39539;52.202;9.876;2023-12-14T12:56:28;6.22;;;5.38;;
19675;SDS011;39539;52.202;9.876;2023-12-14T12:58:54;6.13;;;5.53;;
19675;SDS011;39539;52.202;9.876;2023-12-14T13:01:22;7.63;;;6.93;;
19675;SDS011;39539;52.202;9.876;2023-12-14T13:03:53;6.68;;;6.07;;
19675;SDS011;39539;52.202;9.876;2023-12-14T13:06:20;6.18;;;5.68;;
19675;SDS011;39539;52.202;9.876;2023-12-14T13:08:46;7.07;;;6.47;;
19675;SDS011;39539;52.202;9.876;2023-12-14T13:11:12;6.15;;;5.55;;
19675;SDS011;39539;52.202;9.876;2023-12-14T13:13:37;6.30;;;5.70;;
19675;SDS011;39539;52.202;9.876;2023-12-14T13:16:02;6.07;;;5.20;;
19675;SDS011;39539;52.202;9.876;2023-12-14T13:18:28;6.40;;;5.75;;
19675;SDS011;39539;52.202;9.876;2023-12-14T13:20:53;6.28;;;5.38;;
19675;SDS011;39539;52.202;9.876;2023-12-14T13:23:19;5.47;;;5.00;;
19675;SDS011;39539;52.202;9.876;2023-12-14T13:25:44;7.05;;;5.90;;
19675;SDS011;39539;52.202;9.876;2023-12-14T13:28:10;5.35;;;4.95;;
19675;SDS011;39539;52.202;9.876;2023-12-14T13:30:35;6.03;;;5.43;;
19675;SDS011;39539;52.202;9.876;2023-12-14T13:33:01;5.30;;;4.80;;
19675;SDS011;39539;52.202;9.876;2023-12-14T13:35:27;6.38;;;5.78;;
19675;SDS011;39539;52.202;9.876;2023-12-14T13:37:53;5.35;;;4.78;;
19675;SDS011;39539;52.202;9.876;2023-12-14T13:40:18;5.25;;;4.75;;
19675;SDS011;39539;52.202;9.876;2023-12-14T13:42:44;5.50;;;5.00;;
19675;SDS011;39539;52.202;9.876;2023-12-14T13:45:09;5.90;;;5.35;;
19675;SDS011;39539;52.202;9.876;2023-12-14T13:47:35;5.40;;;4.88;;
19675;SDS011;39539;52.202;9.876;2023-12-14T13:50:01;6.00;;;5.40;;
19675;SDS011;39539;52.202;9.876;2023-12-14T13:52:29;5.05;;;4.55;;
19675;SDS011;39539;52.202;9.876;2023-12-14T13:54:55;5.97;;;5.13;;
19675;SDS011;39539;52.202;9.876;2023-12-14T13:57:21;5.82;;;5.18;;
19675;SDS011;39539;52.202;9.876;2023-12-14T13:59:47;5.43;;;4.93;;
19675;SDS011;39539;52.202;9.876;2023-12-14T14:02:13;5.80;;;5.22;;
19675;SDS011;39539;52.202;9.876;2023-12-14T14:04:38;6.78;;;5.70;;
19675;SDS011;39539;52.202;9.876;2023-12-14T14:07:06;5.28;;;4.75;;
19675;SDS011;39539;52.202;9.876;2023-12-14T14:09:31;5.38;;;4.93;;
19675;SDS011;39539;52.202;9.876;2023-12-14T14:11:58;5.78;;;5.22;;
19675;SDS011;39539;52.202;9.876;2023-12-14T14:14:23;5.20;;;4.70;;
19675;SDS011;39539;52.202;9.876;2023-12-14T14:16:49;5.68;;;5.05;;
19675;SDS011;39539;52.202;9.876;2023-12-14T14:19:15;5.57;;;4.97;;
19675;SDS011;39539;52.202;9.876;2023-12-14T14:21:41;5.65;;;5.15;;
19675;SDS011;39539;52.202;9.876;2023-12-14T14:24:06;5.40;;;4.78;;
19675;SDS011;39539;52.202;9.876;2023-12-14T14:26:32;5.18;;;4.75;;
19675;SDS011;39539;52.202;9.876;2023-12-14T14:28:58;5.55;;;5.03;;
19675;SDS011;39539;52.202;9.876;2023-12-14T14:31:27;5.35;;;4.88;;
19675;SDS011;39539;52.202;9.876;2023-12-14T14:34:00;7.70;;;5.93;;
19675;SDS011;39539;52.202;9.876;2023-12-14T14:36:26;5.65;;;5.05;;
19675;SDS011;39539;52.202;9.876;2023-12-14T14:38:51;6.50;;;5.65;;
19675;SDS011;39539;52.202;9.876;2023-12-14T14:41:19;5.90;;;5.30;;
19675;SDS011;39539;52.202;9.876;2023-12-14T14:43:45;6.72;;;5.53;;
19675;SDS011;39539;52.202;9.876;2023-12-14T14:46:10;5.57;;;4.93;;
19675;SDS011;39539;52.202;9.876;2023-12-14T14:48:36;8.27;;;5.28;;
19675;SDS011;39539;52.202;9.876;2023-12-14T14:51:02;5.38;;;4.88;;
19675;SDS011;39539;52.202;9.876;2023-12-14T14:53:28;6.25;;;5.70;;
19675;SDS011;39539;52.202;9.876;2023-12-14T14:55:55;6.00;;;5.25;;
19675;SDS011;39539;52.202;9.876;2023-12-14T14:58:21;6.35;;;5.15;;
19675;SDS011;39539;52.202;9.876;2023-12-14T15:00:47;5.57;;;5.03;;
19675;SDS011;39539;52.202;9.876;2023-12-14T15:03:13;8.45;;;5.75;;
19675;SDS011;39539;52.202;9.876;2023-12-14T15:05:39;6.22;;;5.60;;
19675;SDS011;39539;52.202;9.876;2023-12-14T15:08:05;7.13;;;5.93;;
19675;SDS011;39539;52.202;9.876;2023-12-14T15:10:32;6.32;;;5.32;;
19675;SDS011;39539;52.202;9.876;2023-12-14T15:12:58;6.55;;;5.22;;
19675;SDS011;39539;52.202;9.876;2023-12-14T15:15:23;6.20;;;5.60;;
19675;SDS011;39539;52.202;9.876;2023-12-14T15:17:48;7.70;;;5.93;;
19675;SDS011;39539;52.202;9.876;2023-12-14T15:20:14;6.63;;;6.03;;
19675;SDS011;39539;52.202;9.876;2023-12-14T15:22:40;6.47;;;5.80;;
19675;SDS011;39539;52.202;9.876;2023-12-14T15:25:05;7.68;;;6.43;;
19675;SDS011;39539;52.202;9.876;2023-12-14T15:27:31;6.32;;;5.65;;
19675;SDS011;39539;52.202;9.876;2023-12-14T15:29:58;7.28;;;6.05;;
19675;SDS011;39539;52.202;9.876;2023-12-14T15:32:24;7.38;;;6.63;;
19675;SDS011;39539;52.202;9.876;2023-12-14T15:34:49;9.50;;;6.25;;